AirNav   Everest Fuels
 
 1507 users online  

U37 Midway Airport
Atomic City, Idaho, USA

GOING TO ATOMIC CITY?


FAA INFORMATION EFFECTIVE 30 JANUARY 2020

Location

FAA Identifier: U37
Lat/Long: 43-27-13.0000N 112-48-26.1000W
43-27.216667N 112-48.435000W
43.4536111,-112.8072500
(estimated)
Elevation: 5017 ft. / 1529.2 m (surveyed)
Variation: 16E (1985)
From city: 1 mile NE of ATOMIC CITY, ID
Time zone: UTC -7 (UTC -6 during Daylight Saving Time)
Zip code: 83215

Airport Operations

Airport use: Open to the public
Activation date: 10/1947
Control tower: no
ARTCC: SALT LAKE CITY CENTER
FSS: BOISE FLIGHT SERVICE STATION
NOTAMs facility: BOI (NOTAM-D service available)
Attendance: UNATNDD
Wind indicator: yes
Segmented circle: yes

Airport Communications

CTAF: 122.9

Nearby radio navigation aids

VOR radial/distance  VOR name  Freq  Var
IDAr248/32.6IDAHO FALLS VOR/DME113.8515E
PIHr332/35.6POCATELLO VOR/DME112.6017E

Airport Services

Parking: tiedowns
Airframe service: NONE
Powerplant service: NONE
Bottled oxygen: NONE
Bulk oxygen: NONE

Runway Information

Runway 2/20

Dimensions: 3800 x 175 ft. / 1158 x 53 m
Surface: gravel, in fair condition
FIRST 1500' OF RY 02 IS DIRT; REMAINDER OF RY IS GRVL.
Runway edge markings: 02/20 EDGES & THRS MARKED WITH WHITE ROCKS.
RUNWAY 2  RUNWAY 20
Latitude: 43-26.963667N43-27.468000N
Longitude: 112-48.688833W112-48.180667W
Elevation: 5017.0 ft.5017.0 ft.
Traffic pattern: leftright
Runway heading: 020 magnetic, 036 true200 magnetic, 216 true
Obstructions: 17 ft. road, 100 ft. right of centerline17 ft. road, 270 ft. from runway, 15:1 slope to clear

Airport Ownership and Management from official FAA records

Ownership: Publicly-owned
Owner: STATE OF ID, ITD DIV OF AERO
P.O. BOX 7129
BOISE, ID 83707-1129
Phone 208-334-8775
Manager: DIV ADMIN
P.O. BOX 7129
BOISE, ID 83707-1129
Phone 208-334-8775

Airport Operational Statistics

Aircraft operations: 150/year *
100% transient general aviation
* for 12-month period ending 22 August 2017

Additional Remarks

NO WINTER MAINT.
+5 FT HEAVY SAGEBRUSH ADJACENT TO BOTH RY EDGES.
FOR CD CTC SALT LAKE ARTCC AT 801-320-2568.

Instrument Procedures

There are no published instrument procedures at U37.

Some nearby airports with instrument procedures:

KAOC - Arco-Butte County Airport (25 nm W)
U02 - McCarley Field Airport (25 nm SE)
KIDA - Idaho Falls Regional Airport (32 nm E)
KPIH - Pocatello Regional Airport (34 nm S)
KRXE - Rexburg-Madison County Airport (49 nm NE)
 
Loc | Ops | Rwys | IFR | FBO | Links
Com | Nav | Svcs | Stats | Notes
Area around U37 (Midway Airport)
 
Road maps at: MapQuest Bing Google
 
Aerial photo
No photo
 
Sectional chart

 
Airport distance calculator
Flying to Midway Airport? Find the distance to fly.

From to U37

Sunrise and sunset
Times for 19-Feb-2020
 Local
(UTC-7)
 Zulu
(UTC)
Morning civil twilight06:5513:55
Sunrise07:2514:25
Sunset18:0601:06
Evening civil twilight18:3501:35

Current date and time
Zulu (UTC)  19-Feb-2020 21:21:39
Local (UTC-7)  19-Feb-2020 14:21:39
 
METAR
KIDA 
32nm E 
192053Z 36007KT 10SM CLR M09/M13 A3040 RMK AO2 SLP382 T10941133 51002
KPIH 
34nm S 
192053Z 04007KT 10SM FEW030 M02/M11 A3039 RMK AO2 SLP337 T10171111 58005
KRXE 
49nm NE 
192053Z AUTO 00000KT 10SM CLR M08/M16 A3039 RMK AO2 SLP372 T10781156 58001
TAF
KIDA 
32nm E 
191721Z 1918/2018 01007KT P6SM SKC
KPIH 
34nm S 
191757Z 1918/2018 VRB05KT 5SM BR OVC003 FM191900 03006KT P6SM FEW010 FM200200 01004KT P6SM SKC TEMPO 2011/2015 3SM BR BKN003
NOTAMs
Click for the latest NOTAMs
NOTAMs are issued by the DoD/FAA and will open in a separate window not controlled by AirNav.

 

 
 

Would you like to see your business listed on this page?

 If your business provides an interesting product or service to pilots, flight crews, aircraft, or users of the Midway Airport, you should consider listing it here.  To start the listing process, click on the button below
 
Add a business
 

Other Pages about Midway Airport

Update a link
 
Copyright © AirNav, LLC. All rights reserved. Privacy Policy  Contact